Time;durP1;ratioP1;P1;durP2;ratioP2;P2;SDS_P1;SDS_P2;PMS_P1;PMS_P2;Temp;Humidity;BMP_temperature;BMP_pressure;BME280_temperature;BME280_humidity;BME280_pressure;Samples;Min_cycle;Max_cycle;Signal;HPM_P1;HPM_P2
2021/07/03 00:02:23;;;;;;;6.82;4.03;;;;;;;;;;4164851;34;20111;-68
2021/07/03 00:04:48;;;;;;;5.60;3.53;;;;;;;;;;4151018;34;20130;-68
2021/07/03 00:07:15;;;;;;;3.97;3.62;;;;;;;;;;4163917;34;20502;-67
2021/07/03 00:09:41;;;;;;;4.80;3.08;;;;;;;;;;4164155;34;20182;-67
2021/07/03 00:12:07;;;;;;;4.95;3.83;;;;;;;;;;4163806;34;20134;-65
2021/07/03 00:14:34;;;;;;;6.65;4.00;;;;;;;;;;4163888;34;20491;-68
2021/07/03 00:43:47;;;;;;;6.22;4.90;;;;;;;;;;4722439;28;20196;-68
2021/07/03 00:46:13;;;;;;;8.05;4.90;;;;;;;;;;4159437;34;20130;-68
2021/07/03 00:48:39;;;;;;;8.48;4.95;;;;;;;;;;4162430;34;20392;-68
2021/07/03 00:51:05;;;;;;;5.62;4.50;;;;;;;;;;4162929;34;20109;-68
2021/07/03 00:53:31;;;;;;;8.05;4.03;;;;;;;;;;4162844;34;20190;-67
2021/07/03 00:55:57;;;;;;;8.65;5.32;;;;;;;;;;4163066;34;20134;-70
2021/07/03 00:58:23;;;;;;;5.68;3.80;;;;;;;;;;4150236;34;20526;-68
2021/07/03 01:00:49;;;;;;;10.00;3.92;;;;;;;;;;4162758;34;20143;-67
2021/07/03 01:03:15;;;;;;;6.68;3.75;;;;;;;;;;4162761;34;20126;-68
2021/07/03 01:05:41;;;;;;;8.00;3.85;;;;;;;;;;4163025;34;20149;-67
2021/07/03 01:08:07;;;;;;;7.20;3.85;;;;;;;;;;4162675;34;20138;-68
2021/07/03 01:10:33;;;;;;;7.80;3.95;;;;;;;;;;4162925;34;20671;-68
2021/07/03 01:12:58;;;;;;;5.72;3.60;;;;;;;;;;4162925;34;20096;-68
2021/07/03 01:15:24;;;;;;;5.78;3.40;;;;;;;;;;4162585;34;20111;-68
2021/07/03 01:17:50;;;;;;;3.95;2.83;;;;;;;;;;4162609;34;20492;-68
2021/07/03 01:20:17;;;;;;;4.60;3.50;;;;;;;;;;4162630;34;20103;-68
2021/07/03 01:22:43;;;;;;;3.50;3.12;;;;;;;;;;4162606;34;20115;-68
2021/07/03 01:25:10;;;;;;;3.65;3.22;;;;;;;;;;4162520;34;20529;-68
2021/07/03 01:27:36;;;;;;;5.62;3.85;;;;;;;;;;4162613;34;20156;-67
2021/07/03 01:30:03;;;;;;;7.15;3.62;;;;;;;;;;4138960;34;20499;-68
2021/07/03 01:32:29;;;;;;;7.60;3.62;;;;;;;;;;4162482;34;20126;-68
2021/07/03 01:34:55;;;;;;;4.65;3.22;;;;;;;;;;4162354;34;20568;-68
2021/07/03 01:37:20;;;;;;;5.20;3.87;;;;;;;;;;4162410;34;20227;-68
2021/07/03 01:39:48;;;;;;;4.65;3.40;;;;;;;;;;4150013;34;20218;-67
2021/07/03 01:42:14;;;;;;;3.37;2.37;;;;;;;;;;4162664;34;20109;-68
2021/07/03 01:44:41;;;;;;;7.40;3.45;;;;;;;;;;4161846;34;20190;-68
2021/07/03 01:47:07;;;;;;;4.60;3.45;;;;;;;;;;4162344;34;20467;-68
2021/07/03 01:49:38;;;;;;;10.48;3.47;;;;;;;;;;4162552;34;20127;-68
2021/07/03 01:52:04;;;;;;;5.53;3.37;;;;;;;;;;4162356;34;20141;-68
2021/07/03 01:54:30;;;;;;;6.62;3.25;;;;;;;;;;4162204;34;20127;-68
2021/07/03 01:56:58;;;;;;;6.47;3.10;;;;;;;;;;4149611;34;20154;-68
2021/07/03 01:59:29;;;;;;;6.53;3.30;;;;;;;;;;4162260;34;20218;-68
2021/07/03 02:01:55;;;;;;;10.88;3.70;;;;;;;;;;4151964;34;20448;-68
2021/07/03 02:04:21;;;;;;;5.12;3.12;;;;;;;;;;4164378;34;20428;-67
2021/07/03 02:06:47;;;;;;;3.80;2.42;;;;;;;;;;4151801;34;20134;-67
2021/07/03 02:09:14;;;;;;;5.78;3.00;;;;;;;;;;4164385;34;20117;-67
2021/07/03 02:11:40;;;;;;;3.20;2.75;;;;;;;;;;4151720;34;20503;-67
2021/07/03 02:14:06;;;;;;;3.28;2.80;;;;;;;;;;4164485;34;20110;-68
2021/07/03 02:16:34;;;;;;;6.57;2.78;;;;;;;;;;4151554;34;20135;-68
2021/07/03 02:19:01;;;;;;;6.00;3.05;;;;;;;;;;4151798;34;20168;-68
2021/07/03 02:21:27;;;;;;;3.50;2.40;;;;;;;;;;4164234;34;20106;-68
2021/07/03 02:23:53;;;;;;;7.50;2.90;;;;;;;;;;4151557;34;20562;-68
2021/07/03 02:26:21;;;;;;;5.32;2.70;;;;;;;;;;4164094;34;20138;-68
2021/07/03 02:28:46;;;;;;;3.83;2.55;;;;;;;;;;4164004;34;20103;-68
2021/07/03 02:31:12;;;;;;;3.40;2.20;;;;;;;;;;4164344;34;20235;-68
2021/07/03 02:33:38;;;;;;;2.75;2.30;;;;;;;;;;4164198;34;20123;-68
2021/07/03 02:36:04;;;;;;;3.05;2.70;;;;;;;;;;4164117;34;20202;-68
2021/07/03 02:38:30;;;;;;;2.78;2.37;;;;;;;;;;4164463;34;20130;-68
2021/07/03 02:40:56;;;;;;;3.67;2.75;;;;;;;;;;4164111;34;20230;-68
2021/07/03 02:43:22;;;;;;;4.50;3.10;;;;;;;;;;4151118;34;20118;-67
2021/07/03 02:45:48;;;;;;;3.42;2.80;;;;;;;;;;4163952;34;20099;-67
2021/07/03 02:48:14;;;;;;;3.65;3.03;;;;;;;;;;4163981;34;20140;-68
2021/07/03 02:50:40;;;;;;;5.50;3.30;;;;;;;;;;4163837;34;20238;-67
2021/07/03 02:53:05;;;;;;;3.85;2.70;;;;;;;;;;4163922;34;20487;-68
2021/07/03 02:55:31;;;;;;;3.80;2.65;;;;;;;;;;4151297;34;20138;-67
2021/07/03 02:57:57;;;;;;;5.18;2.90;;;;;;;;;;4163974;34;20462;-68
2021/07/03 03:00:23;;;;;;;3.58;2.85;;;;;;;;;;4163720;34;20207;-69
2021/07/03 03:02:49;;;;;;;5.93;3.03;;;;;;;;;;4164100;34;20174;-68
2021/07/03 03:05:15;;;;;;;6.45;3.78;;;;;;;;;;4163700;34;20110;-68
2021/07/03 03:07:41;;;;;;;6.40;3.05;;;;;;;;;;4164155;34;20125;-68
2021/07/03 03:10:09;;;;;;;3.70;3.00;;;;;;;;;;4163659;34;20526;-68
2021/07/03 03:12:35;;;;;;;3.78;2.85;;;;;;;;;;4163945;34;20099;-68
2021/07/03 03:15:01;;;;;;;4.93;2.87;;;;;;;;;;4151114;34;20150;-68
2021/07/03 03:17:27;;;;;;;3.78;2.97;;;;;;;;;;4151123;34;20120;-68
2021/07/03 03:19:53;;;;;;;3.33;2.67;;;;;;;;;;4150996;34;20127;-68
2021/07/03 03:22:19;;;;;;;4.07;3.05;;;;;;;;;;4163719;34;20531;-68
2021/07/03 03:24:48;;;;;;;3.25;2.50;;;;;;;;;;4163630;34;20161;-68
2021/07/03 03:27:13;;;;;;;7.12;3.10;;;;;;;;;;4163766;34;20523;-68
2021/07/03 03:29:39;;;;;;;2.80;2.50;;;;;;;;;;4163587;34;20605;-68
2021/07/03 03:32:06;;;;;;;3.40;2.72;;;;;;;;;;4163594;34;20535;-68
2021/07/03 03:34:32;;;;;;;3.08;2.72;;;;;;;;;;4163450;34;20126;-68
2021/07/03 03:36:58;;;;;;;3.90;3.03;;;;;;;;;;4163774;34;20545;-68
2021/07/03 03:39:24;;;;;;;9.52;2.70;;;;;;;;;;4163405;34;20555;-68
2021/07/03 03:41:50;;;;;;;4.25;2.72;;;;;;;;;;4163658;34;20141;-68
2021/07/03 03:44:16;;;;;;;3.87;3.15;;;;;;;;;;4163627;34;20534;-68
2021/07/03 03:46:41;;;;;;;4.10;2.83;;;;;;;;;;4163445;34;20214;-68
2021/07/03 03:49:07;;;;;;;2.75;2.50;;;;;;;;;;4163483;34;20524;-68
2021/07/03 03:51:33;;;;;;;3.50;3.17;;;;;;;;;;4163552;34;20118;-68
2021/07/03 03:53:59;;;;;;;2.85;2.55;;;;;;;;;;4163568;34;20613;-68
2021/07/03 03:56:25;;;;;;;3.37;2.67;;;;;;;;;;4163746;34;20230;-68
2021/07/03 03:58:51;;;;;;;6.12;2.83;;;;;;;;;;4163484;34;20137;-68
2021/07/03 04:01:17;;;;;;;4.43;2.37;;;;;;;;;;4163441;34;20117;-68
2021/07/03 04:03:43;;;;;;;2.83;2.62;;;;;;;;;;4163622;34;20142;-68
2021/07/03 04:06:09;;;;;;;3.03;2.50;;;;;;;;;;4163332;34;20583;-68
2021/07/03 04:08:36;;;;;;;2.40;2.20;;;;;;;;;;4150473;34;20117;-69
2021/07/03 04:11:03;;;;;;;2.72;2.08;;;;;;;;;;4163254;34;20119;-69
2021/07/03 04:13:28;;;;;;;7.72;2.70;;;;;;;;;;4163237;34;20149;-69
2021/07/03 04:15:54;;;;;;;4.22;3.25;;;;;;;;;;4163222;34;20530;-68
2021/07/03 04:18:20;;;;;;;2.25;2.05;;;;;;;;;;4163229;34;20143;-68
2021/07/03 04:20:46;;;;;;;2.62;2.40;;;;;;;;;;4163201;34;20574;-68
2021/07/03 04:23:12;;;;;;;1.42;1.33;;;;;;;;;;4162484;34;20515;-68
2021/07/03 04:25:38;;;;;;;3.85;2.67;;;;;;;;;;4163170;34;20484;-68
2021/07/03 04:28:04;;;;;;;3.33;2.17;;;;;;;;;;4163300;34;20122;-68
2021/07/03 04:30:29;;;;;;;6.18;2.62;;;;;;;;;;4163028;34;20141;-68
2021/07/03 04:32:57;;;;;;;4.87;2.55;;;;;;;;;;4163049;34;20130;-68
2021/07/03 04:35:22;;;;;;;3.80;2.37;;;;;;;;;;4162890;34;20091;-68
2021/07/03 04:37:48;;;;;;;2.80;2.50;;;;;;;;;;4163083;34;20118;-69
2021/07/03 04:40:14;;;;;;;2.65;2.28;;;;;;;;;;4162946;34;20110;-69
2021/07/03 04:42:40;;;;;;;4.30;1.98;;;;;;;;;;4162878;34;20134;-69
2021/07/03 04:45:07;;;;;;;3.37;2.00;;;;;;;;;;4162607;34;20125;-69
2021/07/03 04:47:33;;;;;;;1.90;1.70;;;;;;;;;;4163037;34;20206;-69
2021/07/03 04:49:59;;;;;;;2.58;2.33;;;;;;;;;;4163040;34;20115;-69
2021/07/03 04:52:26;;;;;;;2.47;2.00;;;;;;;;;;4162542;34;20138;-70
2021/07/03 04:54:52;;;;;;;2.33;1.90;;;;;;;;;;4162479;34;20102;-70
2021/07/03 04:57:18;;;;;;;2.65;2.00;;;;;;;;;;4161434;34;20579;-70
2021/07/03 04:59:44;;;;;;;2.20;2.00;;;;;;;;;;4160799;34;20131;-70
2021/07/03 05:02:11;;;;;;;4.57;2.33;;;;;;;;;;4160697;34;20191;-70
2021/07/03 05:04:37;;;;;;;2.70;2.40;;;;;;;;;;4147658;34;20551;-70
2021/07/03 05:07:03;;;;;;;5.28;2.20;;;;;;;;;;4160637;34;20194;-70
2021/07/03 05:09:29;;;;;;;2.55;2.35;;;;;;;;;;4147992;34;20470;-70
2021/07/03 05:11:55;;;;;;;4.85;2.33;;;;;;;;;;4161579;34;20198;-70
2021/07/03 05:14:21;;;;;;;3.70;2.37;;;;;;;;;;4162737;34;20480;-70
2021/07/03 05:16:47;;;;;;;4.12;2.45;;;;;;;;;;4150032;34;20122;-70
2021/07/03 05:19:14;;;;;;;2.28;2.03;;;;;;;;;;4162683;34;20119;-70
2021/07/03 05:21:39;;;;;;;2.33;2.10;;;;;;;;;;4162718;34;20195;-70
2021/07/03 05:24:05;;;;;;;2.85;2.33;;;;;;;;;;4162539;34;20546;-70
2021/07/03 05:26:31;;;;;;;2.05;1.85;;;;;;;;;;4162713;34;20199;-70
2021/07/03 05:28:57;;;;;;;2.15;1.95;;;;;;;;;;4162581;34;20122;-70
2021/07/03 05:31:23;;;;;;;2.08;1.90;;;;;;;;;;4162583;34;20115;-70
2021/07/03 05:33:49;;;;;;;4.37;2.03;;;;;;;;;;4162848;34;20118;-70
2021/07/03 05:36:15;;;;;;;13.20;2.42;;;;;;;;;;4164595;34;20130;-70
2021/07/03 05:38:42;;;;;;;4.30;2.40;;;;;;;;;;4164887;34;20118;-70
2021/07/03 05:41:10;;;;;;;2.37;2.10;;;;;;;;;;4164538;34;20228;-70
2021/07/03 05:43:36;;;;;;;3.58;2.25;;;;;;;;;;4151755;34;20187;-69
2021/07/03 05:46:03;;;;;;;2.12;1.92;;;;;;;;;;4164465;34;20118;-70
2021/07/03 05:48:29;;;;;;;2.70;2.00;;;;;;;;;;4164439;34;20178;-70
2021/07/03 05:50:55;;;;;;;3.40;2.22;;;;;;;;;;4151916;34;20146;-70
2021/07/03 05:53:21;;;;;;;3.62;2.50;;;;;;;;;;4152085;34;20153;-69
2021/07/03 05:55:47;;;;;;;3.92;2.28;;;;;;;;;;4164645;34;20145;-69
2021/07/03 05:58:13;;;;;;;4.25;2.20;;;;;;;;;;4164729;34;20451;-69
2021/07/03 06:00:39;;;;;;;2.25;2.05;;;;;;;;;;4164480;34;20238;-69
2021/07/03 06:03:05;;;;;;;3.67;2.58;;;;;;;;;;4151689;34;20119;-69
2021/07/03 06:05:31;;;;;;;2.50;2.20;;;;;;;;;;4164650;34;20141;-69
2021/07/03 06:07:57;;;;;;;2.72;2.20;;;;;;;;;;4164715;34;20450;-68
2021/07/03 06:10:22;;;;;;;2.40;1.95;;;;;;;;;;4164309;34;20117;-68
2021/07/03 06:12:48;;;;;;;3.17;2.00;;;;;;;;;;4164262;34;20098;-68
2021/07/03 06:15:14;;;;;;;2.12;1.80;;;;;;;;;;4164228;34;20110;-69
2021/07/03 06:17:40;;;;;;;3.40;1.90;;;;;;;;;;4164303;34;20474;-69
2021/07/03 06:20:08;;;;;;;2.72;1.90;;;;;;;;;;4164385;34;20338;-69
2021/07/03 06:22:35;;;;;;;4.55;2.22;;;;;;;;;;4151640;34;20510;-68
2021/07/03 06:25:01;;;;;;;2.92;2.20;;;;;;;;;;4164134;34;20204;-68
2021/07/03 06:27:27;;;;;;;4.05;2.25;;;;;;;;;;4151579;34;20119;-68
2021/07/03 06:29:53;;;;;;;2.30;1.75;;;;;;;;;;4164062;34;20285;-68
2021/07/03 06:32:18;;;;;;;1.90;1.77;;;;;;;;;;4164178;34;20459;-69
2021/07/03 06:34:44;;;;;;;2.75;2.20;;;;;;;;;;4164204;34;20150;-68
2021/07/03 06:37:10;;;;;;;3.28;2.05;;;;;;;;;;4164090;34;20291;-69
2021/07/03 06:39:36;;;;;;;2.60;1.85;;;;;;;;;;4164037;34;20118;-69
2021/07/03 06:42:02;;;;;;;2.22;1.80;;;;;;;;;;4151399;34;20133;-69
2021/07/03 06:44:28;;;;;;;5.60;2.00;;;;;;;;;;4163846;34;20433;-69
2021/07/03 06:46:54;;;;;;;6.82;2.05;;;;;;;;;;4163611;34;20293;-69
2021/07/03 06:49:20;;;;;;;3.35;1.92;;;;;;;;;;4163852;34;20134;-69
2021/07/03 06:51:46;;;;;;;1.77;1.52;;;;;;;;;;4151577;34;20126;-69
2021/07/03 06:54:12;;;;;;;2.42;1.90;;;;;;;;;;4164042;34;20118;-69
2021/07/03 06:56:38;;;;;;;1.92;1.80;;;;;;;;;;4163792;34;20551;-69
2021/07/03 06:59:04;;;;;;;4.25;2.10;;;;;;;;;;4163884;34;20127;-69
2021/07/03 07:01:30;;;;;;;4.40;2.20;;;;;;;;;;4151231;34;20542;-69
2021/07/03 07:03:55;;;;;;;2.85;1.87;;;;;;;;;;4163879;34;20444;-69
2021/07/03 07:06:21;;;;;;;1.37;1.27;;;;;;;;;;4164144;34;20130;-69
2021/07/03 07:08:47;;;;;;;2.22;2.03;;;;;;;;;;4164112;34;20087;-69
2021/07/03 07:11:13;;;;;;;7.43;1.95;;;;;;;;;;4151470;34;20230;-69
2021/07/03 07:13:39;;;;;;;5.78;2.30;;;;;;;;;;4163702;34;20186;-69
2021/07/03 07:16:05;;;;;;;2.50;2.20;;;;;;;;;;4163674;34;20137;-69
2021/07/03 07:18:31;;;;;;;3.10;2.08;;;;;;;;;;4163715;34;20119;-69
2021/07/03 07:20:57;;;;;;;3.55;2.20;;;;;;;;;;4163724;34;20095;-69
2021/07/03 07:23:23;;;;;;;6.30;2.20;;;;;;;;;;4163538;34;20112;-69
2021/07/03 07:25:50;;;;;;;1.37;1.27;;;;;;;;;;4151090;34;20146;-69
2021/07/03 07:28:18;;;;;;;7.05;1.87;;;;;;;;;;4150931;34;20110;-70
2021/07/03 07:30:44;;;;;;;3.25;2.15;;;;;;;;;;4151103;34;20122;-69
2021/07/03 07:33:10;;;;;;;2.30;2.10;;;;;;;;;;4163495;34;20467;-69
2021/07/03 07:35:36;;;;;;;3.08;2.22;;;;;;;;;;4163539;34;20229;-69
2021/07/03 07:38:02;;;;;;;3.40;2.03;;;;;;;;;;4163452;34;20523;-69
2021/07/03 07:40:28;;;;;;;2.47;2.28;;;;;;;;;;4163418;34;20103;-69
2021/07/03 07:42:54;;;;;;;3.10;2.55;;;;;;;;;;4163475;34;20207;-69
2021/07/03 07:45:20;;;;;;;3.42;2.30;;;;;;;;;;4163252;34;20141;-69
2021/07/03 07:47:49;;;;;;;2.20;1.75;;;;;;;;;;4150934;34;20130;-69
2021/07/03 07:50:15;;;;;;;2.10;1.90;;;;;;;;;;4163402;34;20191;-69
2021/07/03 07:52:41;;;;;;;2.03;1.60;;;;;;;;;;4150763;34;20107;-69
2021/07/03 07:55:07;;;;;;;1.52;1.42;;;;;;;;;;4163476;34;20130;-69
2021/07/03 07:57:33;;;;;;;2.87;2.00;;;;;;;;;;4162506;34;20556;-68
2021/07/03 07:59:59;;;;;;;1.55;1.45;;;;;;;;;;4163407;34;20169;-69
2021/07/03 08:02:25;;;;;;;2.80;1.73;;;;;;;;;;4163413;34;20122;-69
2021/07/03 08:04:50;;;;;;;3.25;2.95;;;;;;;;;;4163372;34;20262;-68
2021/07/03 08:07:16;;;;;;;3.35;2.30;;;;;;;;;;4163422;34;20134;-68
2021/07/03 08:09:44;;;;;;;2.47;1.90;;;;;;;;;;4163235;34;20121;-68
2021/07/03 08:12:13;;;;;;;1.65;1.55;;;;;;;;;;4163506;34;20117;-68
2021/07/03 08:14:39;;;;;;;3.10;1.90;;;;;;;;;;4163343;34;20142;-68
2021/07/03 08:17:05;;;;;;;4.25;2.20;;;;;;;;;;4139540;34;20134;-69
2021/07/03 08:19:31;;;;;;;4.55;1.92;;;;;;;;;;4151059;34;20142;-68
2021/07/03 08:21:58;;;;;;;2.20;1.90;;;;;;;;;;4163364;34;20553;-68
2021/07/03 08:24:24;;;;;;;2.28;2.08;;;;;;;;;;4150634;34;20126;-69
2021/07/03 08:26:50;;;;;;;2.40;2.20;;;;;;;;;;4150649;34;20495;-69
2021/07/03 08:29:16;;;;;;;2.03;1.83;;;;;;;;;;4163169;34;20097;-69
2021/07/03 08:31:42;;;;;;;1.65;1.55;;;;;;;;;;4163413;34;20130;-69
2021/07/03 08:34:08;;;;;;;2.28;1.70;;;;;;;;;;4150486;34;20118;-69
2021/07/03 08:36:34;;;;;;;12.77;2.15;;;;;;;;;;4150609;34;20189;-69
2021/07/03 08:39:00;;;;;;;2.20;1.92;;;;;;;;;;4163043;34;20134;-69
2021/07/03 08:41:26;;;;;;;2.37;2.10;;;;;;;;;;4163044;34;20127;-69
2021/07/03 08:43:52;;;;;;;3.42;2.00;;;;;;;;;;4150204;34;20194;-69
2021/07/03 08:46:21;;;;;;;2.37;2.17;;;;;;;;;;4163135;34;20141;-69
2021/07/03 08:48:47;;;;;;;4.53;3.67;;;;;;;;;;4162869;34;20230;-68
2021/07/03 08:51:13;;;;;;;4.10;1.90;;;;;;;;;;4162925;34;20466;-69
2021/07/03 08:53:39;;;;;;;2.12;1.92;;;;;;;;;;4162836;34;20130;-69
2021/07/03 08:56:05;;;;;;;2.90;2.50;;;;;;;;;;4162840;34;20115;-69
2021/07/03 08:58:31;;;;;;;3.20;1.85;;;;;;;;;;4162820;34;20189;-68
2021/07/03 09:00:57;;;;;;;1.87;1.77;;;;;;;;;;4162955;34;20103;-69
2021/07/03 09:03:24;;;;;;;2.50;1.90;;;;;;;;;;4162941;34;20219;-69
2021/07/03 09:05:55;;;;;;;2.47;2.28;;;;;;;;;;4162788;34;20122;-69
2021/07/03 09:08:24;;;;;;;2.20;2.00;;;;;;;;;;4150403;34;20111;-69
2021/07/03 09:11:06;;;;;;;2.78;2.03;;;;;;;;;;4152198;34;20114;-68
2021/07/03 09:13:32;;;;;;;2.03;1.80;;;;;;;;;;4152224;34;20206;-69
2021/07/03 09:15:58;;;;;;;4.35;2.05;;;;;;;;;;4152239;34;20125;-69
2021/07/03 09:18:30;;;;;;;1.98;1.77;;;;;;;;;;4164936;34;20137;-69
2021/07/03 09:21:00;;;;;;;2.40;2.20;;;;;;;;;;4164823;34;20203;-69
2021/07/03 09:23:32;;;;;;;2.87;1.83;;;;;;;;;;4152419;34;20138;-68
2021/07/03 09:26:00;;;;;;;3.70;2.00;;;;;;;;;;4164808;34;20199;-69
2021/07/03 09:28:27;;;;;;;4.32;2.00;;;;;;;;;;4164989;34;20182;-69
2021/07/03 09:30:55;;;;;;;2.35;2.15;;;;;;;;;;4152215;34;20211;-69
2021/07/03 09:33:22;;;;;;;4.05;2.40;;;;;;;;;;4164632;34;20119;-68
2021/07/03 09:35:59;;;;;;;2.53;2.17;;;;;;;;;;4164599;34;20118;-69
2021/07/03 09:38:39;;;;;;;2.10;1.90;;;;;;;;;;4164502;34;20169;-69
2021/07/03 09:41:05;;;;;;;2.85;2.45;;;;;;;;;;4152014;34;20122;-69
2021/07/03 09:43:31;;;;;;;3.12;2.17;;;;;;;;;;4151712;34;20118;-68
2021/07/03 09:45:57;;;;;;;5.62;2.40;;;;;;;;;;4164543;34;20115;-69
2021/07/03 09:48:23;;;;;;;2.22;2.03;;;;;;;;;;4164511;34;20099;-69
2021/07/03 09:50:49;;;;;;;2.70;2.20;;;;;;;;;;4164427;34;20608;-68
2021/07/03 09:53:15;;;;;;;6.30;2.20;;;;;;;;;;4164422;34;20544;-68
2021/07/03 09:55:41;;;;;;;3.78;2.30;;;;;;;;;;4152109;34;20135;-69
2021/07/03 09:58:09;;;;;;;2.45;1.52;;;;;;;;;;4164680;34;20227;-69
2021/07/03 10:00:37;;;;;;;2.65;2.10;;;;;;;;;;4164505;34;20189;-69
2021/07/03 10:03:07;;;;;;;2.80;2.45;;;;;;;;;;4151855;34;20106;-68
2021/07/03 10:05:39;;;;;;;3.70;2.72;;;;;;;;;;4164500;34;20504;-69
2021/07/03 10:08:09;;;;;;;3.17;2.03;;;;;;;;;;4151979;34;20207;-69
2021/07/03 10:10:36;;;;;;;4.72;2.45;;;;;;;;;;4164579;34;20494;-69
2021/07/03 10:13:16;;;;;;;2.40;2.20;;;;;;;;;;4152025;34;20618;-69
2021/07/03 10:15:42;;;;;;;3.50;2.55;;;;;;;;;;4153226;34;20099;-69
2021/07/03 10:18:14;;;;;;;2.65;2.30;;;;;;;;;;4151642;34;20214;-69
2021/07/03 10:20:41;;;;;;;3.08;2.17;;;;;;;;;;4163683;34;20123;-69
2021/07/03 10:23:07;;;;;;;4.62;2.58;;;;;;;;;;4164165;34;20211;-69
2021/07/03 10:25:34;;;;;;;4.65;2.78;;;;;;;;;;4151715;34;20200;-69
2021/07/03 10:28:01;;;;;;;2.42;1.95;;;;;;;;;;4164223;34;20118;-69
2021/07/03 10:30:31;;;;;;;2.62;2.30;;;;;;;;;;4151536;34;20205;-69
2021/07/03 10:33:01;;;;;;;2.95;2.50;;;;;;;;;;4151596;34;20424;-69
2021/07/03 10:35:27;;;;;;;2.28;2.08;;;;;;;;;;4164266;34;20109;-69
2021/07/03 10:37:54;;;;;;;5.25;2.47;;;;;;;;;;4164098;34;20094;-69
2021/07/03 10:40:25;;;;;;;3.08;2.08;;;;;;;;;;4164007;34;20114;-69
2021/07/03 10:42:52;;;;;;;4.12;2.67;;;;;;;;;;4151645;34;20122;-68
2021/07/03 10:45:23;;;;;;;3.03;2.72;;;;;;;;;;4164119;34;20119;-69
2021/07/03 10:47:50;;;;;;;4.37;2.20;;;;;;;;;;4151830;34;20451;-69
2021/07/03 10:50:17;;;;;;;3.15;2.17;;;;;;;;;;4151497;34;20115;-70
2021/07/03 10:52:43;;;;;;;2.47;2.20;;;;;;;;;;4164004;34;20187;-69
2021/07/03 10:55:11;;;;;;;1.87;1.77;;;;;;;;;;4164012;34;20106;-69
2021/07/03 10:57:43;;;;;;;2.78;2.25;;;;;;;;;;4163931;34;20206;-69
2021/07/03 11:00:11;;;;;;;2.37;2.17;;;;;;;;;;4151283;34;20094;-69
2021/07/03 11:02:37;;;;;;;2.28;2.00;;;;;;;;;;4164150;34;20125;-69
2021/07/03 11:05:13;;;;;;;2.80;2.10;;;;;;;;;;4151184;34;20111;-69
2021/07/03 11:07:40;;;;;;;3.42;2.22;;;;;;;;;;4163835;34;20147;-68
2021/07/03 11:10:10;;;;;;;3.47;2.47;;;;;;;;;;4163957;34;20191;-69
2021/07/03 11:12:50;;;;;;;4.60;2.78;;;;;;;;;;4164109;34;20441;-69
2021/07/03 11:15:18;;;;;;;2.78;2.47;;;;;;;;;;4163903;34;20311;-69
2021/07/03 11:17:43;;;;;;;2.55;2.35;;;;;;;;;;4151096;34;20535;-69
2021/07/03 11:20:10;;;;;;;2.78;2.20;;;;;;;;;;4163647;34;20128;-69
2021/07/03 11:22:41;;;;;;;3.20;2.92;;;;;;;;;;4163811;34;20234;-68
2021/07/03 11:25:08;;;;;;;5.70;2.50;;;;;;;;;;4163623;34;20111;-69
2021/07/03 11:27:36;;;;;;;3.42;2.30;;;;;;;;;;4151158;34;20141;-69
2021/07/03 11:30:06;;;;;;;2.55;1.87;;;;;;;;;;4163959;34;20087;-69
2021/07/03 11:32:32;;;;;;;2.85;2.20;;;;;;;;;;4163764;34;20119;-69
2021/07/03 11:35:00;;;;;;;2.08;1.87;;;;;;;;;;4151211;34;20107;-69
2021/07/03 11:37:35;;;;;;;3.83;2.30;;;;;;;;;;4163516;34;20103;-69
2021/07/03 11:40:05;;;;;;;5.55;1.83;;;;;;;;;;4163587;34;20117;-69
2021/07/03 11:42:35;;;;;;;3.72;2.65;;;;;;;;;;4163579;34;20314;-69
2021/07/03 11:45:02;;;;;;;3.92;2.42;;;;;;;;;;4163470;34;20456;-68
2021/07/03 11:47:39;;;;;;;4.30;2.40;;;;;;;;;;4163484;34;20118;-69
2021/07/03 11:50:07;;;;;;;5.22;2.30;;;;;;;;;;4150904;34;20091;-69
2021/07/03 11:52:47;;;;;;;2.30;2.00;;;;;;;;;;4163508;34;20109;-69
2021/07/03 11:55:13;;;;;;;2.28;1.90;;;;;;;;;;4163409;34;20520;-69
2021/07/03 11:57:44;;;;;;;4.57;2.40;;;;;;;;;;4163711;34;20654;-69
2021/07/03 12:00:21;;;;;;;1.80;1.70;;;;;;;;;;4150873;34;20113;-69
2021/07/03 12:02:46;;;;;;;8.68;2.87;;;;;;;;;;4151067;34;20514;-69
2021/07/03 12:05:13;;;;;;;3.22;2.45;;;;;;;;;;4150710;34;20111;-69
2021/07/03 12:07:40;;;;;;;2.10;1.90;;;;;;;;;;4163439;34;20145;-69
2021/07/03 12:10:08;;;;;;;2.95;2.45;;;;;;;;;;4150907;34;20130;-69
2021/07/03 12:12:34;;;;;;;3.17;2.25;;;;;;;;;;4163405;34;20115;-69
2021/07/03 12:15:04;;;;;;;2.47;2.28;;;;;;;;;;4163473;34;20111;-69
2021/07/03 12:17:31;;;;;;;3.97;2.42;;;;;;;;;;4151137;34;20109;-69
2021/07/03 12:20:09;;;;;;;3.05;2.20;;;;;;;;;;4150650;34;20113;-69
2021/07/03 12:22:37;;;;;;;4.47;2.40;;;;;;;;;;4163239;34;20310;-69
2021/07/03 12:25:13;;;;;;;4.68;2.62;;;;;;;;;;4162978;34;20107;-69
2021/07/03 12:27:39;;;;;;;3.28;2.97;;;;;;;;;;4150642;34;20125;-69
2021/07/03 12:30:07;;;;;;;2.20;2.00;;;;;;;;;;4162979;34;20144;-69
2021/07/03 12:32:33;;;;;;;4.18;2.17;;;;;;;;;;4150890;34;20126;-69
2021/07/03 12:35:08;;;;;;;3.58;2.15;;;;;;;;;;4163159;34;20130;-69
2021/07/03 12:37:34;;;;;;;2.80;2.12;;;;;;;;;;4162988;34;20098;-69
2021/07/03 12:40:13;;;;;;;3.85;2.60;;;;;;;;;;4162997;34;20191;-69
2021/07/03 12:42:39;;;;;;;5.28;2.53;;;;;;;;;;4163049;34;20146;-69
2021/07/03 12:45:06;;;;;;;2.47;2.28;;;;;;;;;;4162240;34;20115;-69
2021/07/03 12:47:32;;;;;;;5.50;2.60;;;;;;;;;;4150588;34;20443;-69
2021/07/03 12:50:01;;;;;;;5.62;2.33;;;;;;;;;;4150419;34;20165;-69
2021/07/03 12:52:43;;;;;;;3.50;2.72;;;;;;;;;;4150634;34;20105;-69
2021/07/03 12:55:10;;;;;;;3.15;2.62;;;;;;;;;;4162963;34;20157;-69
2021/07/03 12:57:48;;;;;;;5.68;2.80;;;;;;;;;;4150318;34;20134;-69
2021/07/03 13:00:14;;;;;;;3.47;2.80;;;;;;;;;;4162859;34;20117;-69
2021/07/03 13:02:40;;;;;;;2.42;2.22;;;;;;;;;;4162929;34;20226;-69
2021/07/03 13:05:07;;;;;;;3.87;2.30;;;;;;;;;;4162661;34;20123;-69
2021/07/03 13:07:33;;;;;;;2.40;2.20;;;;;;;;;;4150184;34;20133;-69
2021/07/03 13:09:59;;;;;;;5.70;2.60;;;;;;;;;;4162795;34;20560;-69
2021/07/03 13:12:24;;;;;;;6.40;2.30;;;;;;;;;;4150256;34;20134;-69
2021/07/03 13:14:51;;;;;;;4.82;2.30;;;;;;;;;;4162910;34;20236;-69
2021/07/03 13:17:17;;;;;;;2.70;2.40;;;;;;;;;;4162622;34;20121;-69
2021/07/03 13:19:43;;;;;;;2.80;2.50;;;;;;;;;;4162705;34;20122;-70
2021/07/03 13:22:09;;;;;;;2.75;2.10;;;;;;;;;;4162675;34;20146;-69
2021/07/03 13:24:35;;;;;;;6.85;2.72;;;;;;;;;;4162676;34;20391;-69
2021/07/03 13:27:00;;;;;;;4.43;2.60;;;;;;;;;;4162548;34;20134;-69
2021/07/03 13:29:26;;;;;;;3.37;2.55;;;;;;;;;;4162593;34;20530;-69
2021/07/03 13:31:52;;;;;;;5.50;2.40;;;;;;;;;;4150165;34;20092;-69
2021/07/03 13:34:18;;;;;;;3.37;2.70;;;;;;;;;;4162342;34;20131;-69
2021/07/03 13:36:46;;;;;;;3.62;2.60;;;;;;;;;;4162390;34;20130;-69
2021/07/03 13:39:12;;;;;;;3.97;2.55;;;;;;;;;;4162200;34;20126;-69
2021/07/03 13:41:38;;;;;;;3.33;2.40;;;;;;;;;;4149939;34;20138;-69
2021/07/03 13:44:04;;;;;;;2.95;2.40;;;;;;;;;;4162141;34;20134;-69
2021/07/03 13:46:30;;;;;;;3.33;2.03;;;;;;;;;;4162304;34;20134;-68
2021/07/03 13:48:56;;;;;;;4.12;2.28;;;;;;;;;;4162615;34;20157;-69
2021/07/03 13:51:22;;;;;;;6.07;2.40;;;;;;;;;;4162245;34;20134;-69
2021/07/03 13:53:47;;;;;;;2.72;2.30;;;;;;;;;;4162263;34;20130;-69
2021/07/03 13:56:13;;;;;;;2.62;2.33;;;;;;;;;;4163184;34;20134;-69
2021/07/03 13:58:39;;;;;;;2.83;2.22;;;;;;;;;;4151599;34;20490;-69
2021/07/03 14:01:08;;;;;;;4.10;2.60;;;;;;;;;;4151803;34;20560;-69
2021/07/03 14:03:34;;;;;;;3.60;2.67;;;;;;;;;;4164420;34;20215;-69
2021/07/03 14:06:00;;;;;;;2.50;2.25;;;;;;;;;;4164421;34;20542;-68
2021/07/03 14:08:26;;;;;;;3.50;2.80;;;;;;;;;;4164321;34;20204;-69
2021/07/03 14:10:52;;;;;;;2.50;2.17;;;;;;;;;;4164386;34;20503;-69
2021/07/03 14:13:17;;;;;;;2.17;1.98;;;;;;;;;;4164302;34;20110;-69
2021/07/03 14:15:43;;;;;;;2.58;2.33;;;;;;;;;;4164596;34;20114;-69
2021/07/03 14:18:09;;;;;;;4.12;2.33;;;;;;;;;;4164214;34;20476;-69
2021/07/03 14:20:35;;;;;;;2.17;1.98;;;;;;;;;;4164283;34;20115;-69
2021/07/03 14:23:01;;;;;;;2.55;2.20;;;;;;;;;;4151654;34;20202;-69
2021/07/03 14:25:27;;;;;;;2.67;2.10;;;;;;;;;;4164437;34;20170;-68
2021/07/03 14:27:54;;;;;;;3.08;2.20;;;;;;;;;;4164237;34;20122;-69
2021/07/03 14:30:20;;;;;;;6.80;2.37;;;;;;;;;;4164436;34;20134;-69
2021/07/03 14:32:46;;;;;;;3.33;2.58;;;;;;;;;;4151550;34;20122;-69
2021/07/03 14:35:12;;;;;;;2.50;2.17;;;;;;;;;;4164020;34;20130;-69
2021/07/03 14:37:37;;;;;;;3.42;2.30;;;;;;;;;;4164001;34;20221;-69
2021/07/03 14:40:05;;;;;;;3.20;2.45;;;;;;;;;;4164156;34;20211;-69
2021/07/03 14:42:31;;;;;;;8.73;2.60;;;;;;;;;;4164058;34;20513;-69
2021/07/03 14:44:56;;;;;;;3.70;1.70;;;;;;;;;;4164130;34;20127;-69
2021/07/03 14:47:22;;;;;;;3.28;2.40;;;;;;;;;;4163920;34;20122;-69
2021/07/03 14:49:49;;;;;;;3.47;2.53;;;;;;;;;;4151530;34;20122;-68
2021/07/03 14:52:15;;;;;;;4.97;2.60;;;;;;;;;;4151682;34;20107;-69
2021/07/03 14:54:41;;;;;;;2.65;2.20;;;;;;;;;;4151170;34;20141;-69
2021/07/03 14:57:07;;;;;;;6.03;2.10;;;;;;;;;;4164010;34;20130;-69
2021/07/03 14:59:33;;;;;;;3.45;2.45;;;;;;;;;;4163826;34;20535;-69
2021/07/03 15:01:59;;;;;;;6.55;2.55;;;;;;;;;;4164081;34;20292;-69
2021/07/03 15:04:25;;;;;;;6.72;2.47;;;;;;;;;;4163804;34;20542;-69
2021/07/03 15:06:51;;;;;;;6.32;2.78;;;;;;;;;;4151221;34;20564;-68
2021/07/03 15:09:17;;;;;;;5.18;2.22;;;;;;;;;;4163677;34;20118;-69